Amoy Dream — VRHD5 — position and weather

sailwx.info

Track history (hours):
 
Tides and Currents Weather Stations Pressure Air Temp Water Temp Dewpoint Dewpoint Depression Visibility Wind Speed Wind Dir Waves Ship Positions

Amoy Dream

Last reported at 2018-Apr-11 22:33 UTC. Time now 2018-Apr-20 22:19 UTC.
Position N 01°16' E 104°11'.
Warning: this ship's position is 8 days out of date.

Length 190 m; draft 6.5 m.

Type: Cargo ship. MMSI: 477826600.

Date/timePositionNaut miles runAvg speedWind from/ knotsBaromVisibWave heightAir tempDewpointWater temp
2018-Apr-11 22:33N 01°16' E 104°11'412.3
2018-Apr-11 22:14N 01°16' E 104°07'312.0
2018-Apr-11 21:59N 01°15' E 104°05'611.7
2018-Apr-11 21:29N 01°14' E 103°59'611.6
2018-Apr-11 21:00N 01°12' E 103°54'611.2
2018-Apr-11 20:30N 01°10' E 103°48'611.8
2018-Apr-11 20:00N 01°06' E 103°44'612.0
2018-Apr-11 19:30N 01°03' E 103°39'611.7
2018-Apr-11 19:00N 01°05' E 103°34'510.9
2018-Apr-11 18:30N 01°08' E 103°29'611.2
2018-Apr-11 18:00N 01°11' E 103°25'611.4
2018-Apr-11 17:30N 01°15' E 103°20'  
Track history (hours):
 
Tides and Currents Weather Stations Pressure Air Temp Water Temp Dewpoint Dewpoint Depression Visibility Wind Speed Wind Dir Waves Ship Positions

Amoy Dream

Last reported at 2018-Apr-11 22:33 UTC. Time now 2018-Apr-20 22:19 UTC.
Position N 01°16' E 104°11'.
Warning: this ship's position is 8 days out of date.

Length 190 m; draft 6.5 m.

Type: Cargo ship. MMSI: 477826600.

Date/timePositionNaut miles runAvg speedWind from/ knotsBaromVisibWave heightAir tempDewpointWater temp
2018-Apr-11 22:33N 01°16' E 104°11'412.3
2018-Apr-11 22:14N 01°16' E 104°07'312.0
2018-Apr-11 21:59N 01°15' E 104°05'611.7
2018-Apr-11 21:29N 01°14' E 103°59'611.6
2018-Apr-11 21:00N 01°12' E 103°54'611.2
2018-Apr-11 20:30N 01°10' E 103°48'611.8
2018-Apr-11 20:00N 01°06' E 103°44'612.0
2018-Apr-11 19:30N 01°03' E 103°39'611.7
2018-Apr-11 19:00N 01°05' E 103°34'510.9
2018-Apr-11 18:30N 01°08' E 103°29'611.2
2018-Apr-11 18:00N 01°11' E 103°25'611.4
2018-Apr-11 17:30N 01°15' E 103°20'  

Dump ship's entire track history